sensor_id;sensor_type;location;lat;lon;timestamp;temperature;humidity
983;DHT22;480;48.124;11.578;2023-03-31T00:02:05;10.20;99.90
983;DHT22;480;48.124;11.578;2023-03-31T00:04:39;10.20;99.90
983;DHT22;480;48.124;11.578;2023-03-31T00:07:12;10.20;99.90
983;DHT22;480;48.124;11.578;2023-03-31T00:09:39;10.20;99.90
983;DHT22;480;48.124;11.578;2023-03-31T00:12:11;10.20;99.90
983;DHT22;480;48.124;11.578;2023-03-31T00:14:39;10.20;99.90
983;DHT22;480;48.124;11.578;2023-03-31T00:17:06;10.20;99.90
983;DHT22;480;48.124;11.578;2023-03-31T00:19:33;10.20;99.90
983;DHT22;480;48.124;11.578;2023-03-31T00:22:00;10.20;99.90
983;DHT22;480;48.124;11.578;2023-03-31T00:24:30;10.20;99.90
983;DHT22;480;48.124;11.578;2023-03-31T00:26:57;10.40;99.90
983;DHT22;480;48.124;11.578;2023-03-31T00:29:24;10.40;99.90
983;DHT22;480;48.124;11.578;2023-03-31T00:31:53;10.30;99.90
983;DHT22;480;48.124;11.578;2023-03-31T00:34:20;10.40;99.90
983;DHT22;480;48.124;11.578;2023-03-31T00:36:47;10.50;99.90
983;DHT22;480;48.124;11.578;2023-03-31T00:39:15;10.50;99.90
983;DHT22;480;48.124;11.578;2023-03-31T00:41:44;10.60;99.90
983;DHT22;480;48.124;11.578;2023-03-31T00:44:13;10.60;99.90
983;DHT22;480;48.124;11.578;2023-03-31T00:46:48;10.60;99.90
983;DHT22;480;48.124;11.578;2023-03-31T00:49:22;10.60;99.90
983;DHT22;480;48.124;11.578;2023-03-31T00:51:54;10.60;99.90
983;DHT22;480;48.124;11.578;2023-03-31T00:54:23;10.60;99.90
983;DHT22;480;48.124;11.578;2023-03-31T00:56:53;10.50;99.90
983;DHT22;480;48.124;11.578;2023-03-31T00:59:26;10.50;99.90
983;DHT22;480;48.124;11.578;2023-03-31T01:01:55;10.60;99.90
983;DHT22;480;48.124;11.578;2023-03-31T01:04:25;10.60;99.90
983;DHT22;480;48.124;11.578;2023-03-31T01:06:57;10.70;99.90
983;DHT22;480;48.124;11.578;2023-03-31T01:09:29;10.70;99.90
983;DHT22;480;48.124;11.578;2023-03-31T01:12:00;10.70;99.90
983;DHT22;480;48.124;11.578;2023-03-31T01:14:27;10.80;99.90
983;DHT22;480;48.124;11.578;2023-03-31T01:16:54;10.80;99.90
983;DHT22;480;48.124;11.578;2023-03-31T01:19:38;10.70;99.90
983;DHT22;480;48.124;11.578;2023-03-31T01:25:32;10.80;99.90
983;DHT22;480;48.124;11.578;2023-03-31T01:28:17;10.80;99.90
983;DHT22;480;48.124;11.578;2023-03-31T01:31:32;10.90;99.90
983;DHT22;480;48.124;11.578;2023-03-31T01:43:22;10.90;99.90
983;DHT22;480;48.124;11.578;2023-03-31T01:45:55;10.90;99.90
983;DHT22;480;48.124;11.578;2023-03-31T01:48:30;10.90;99.90
983;DHT22;480;48.124;11.578;2023-03-31T01:51:02;10.90;99.90
983;DHT22;480;48.124;11.578;2023-03-31T01:53:34;10.90;99.90
983;DHT22;480;48.124;11.578;2023-03-31T01:56:05;10.90;99.90
983;DHT22;480;48.124;11.578;2023-03-31T01:58:36;10.90;99.90
983;DHT22;480;48.124;11.578;2023-03-31T02:01:09;10.90;99.90
983;DHT22;480;48.124;11.578;2023-03-31T02:03:42;10.90;99.90
983;DHT22;480;48.124;11.578;2023-03-31T02:06:13;11.00;99.90
983;DHT22;480;48.124;11.578;2023-03-31T02:08:44;10.90;99.90
983;DHT22;480;48.124;11.578;2023-03-31T02:11:15;11.00;99.90
983;DHT22;480;48.124;11.578;2023-03-31T02:13:46;11.00;99.90
983;DHT22;480;48.124;11.578;2023-03-31T02:16:19;11.00;99.90
983;DHT22;480;48.124;11.578;2023-03-31T02:18:50;11.00;99.90
983;DHT22;480;48.124;11.578;2023-03-31T02:21:20;11.00;99.90
983;DHT22;480;48.124;11.578;2023-03-31T02:23:49;11.10;99.90
983;DHT22;480;48.124;11.578;2023-03-31T02:26:22;11.10;99.90
983;DHT22;480;48.124;11.578;2023-03-31T02:28:52;11.10;99.90
983;DHT22;480;48.124;11.578;2023-03-31T02:31:26;11.00;99.90
983;DHT22;480;48.124;11.578;2023-03-31T02:33:55;10.90;99.90
983;DHT22;480;48.124;11.578;2023-03-31T02:36:22;11.00;99.90
983;DHT22;480;48.124;11.578;2023-03-31T02:38:52;11.00;99.90
983;DHT22;480;48.124;11.578;2023-03-31T02:41:22;10.90;99.90
983;DHT22;480;48.124;11.578;2023-03-31T02:43:49;10.80;99.90
983;DHT22;480;48.124;11.578;2023-03-31T02:46:16;10.80;99.90
983;DHT22;480;48.124;11.578;2023-03-31T02:48:45;10.70;99.90
983;DHT22;480;48.124;11.578;2023-03-31T02:51:40;10.60;99.90
983;DHT22;480;48.124;11.578;2023-03-31T02:54:32;10.50;99.90
983;DHT22;480;48.124;11.578;2023-03-31T02:57:28;10.30;99.90
983;DHT22;480;48.124;11.578;2023-03-31T03:00:08;10.20;99.90
983;DHT22;480;48.124;11.578;2023-03-31T03:02:48;10.20;99.90
983;DHT22;480;48.124;11.578;2023-03-31T03:05:24;10.30;99.90
983;DHT22;480;48.124;11.578;2023-03-31T03:07:58;10.20;99.90
983;DHT22;480;48.124;11.578;2023-03-31T03:10:36;10.20;99.90
983;DHT22;480;48.124;11.578;2023-03-31T03:13:12;10.30;99.90
983;DHT22;480;48.124;11.578;2023-03-31T03:15:44;10.50;99.90
983;DHT22;480;48.124;11.578;2023-03-31T03:18:13;10.60;99.90
983;DHT22;480;48.124;11.578;2023-03-31T03:20:41;10.60;99.90
983;DHT22;480;48.124;11.578;2023-03-31T03:23:13;10.50;99.90
983;DHT22;480;48.124;11.578;2023-03-31T03:25:40;10.60;99.90
983;DHT22;480;48.124;11.578;2023-03-31T03:28:09;10.50;99.90
983;DHT22;480;48.124;11.578;2023-03-31T03:30:37;10.50;99.90
983;DHT22;480;48.124;11.578;2023-03-31T03:33:03;10.20;99.90
983;DHT22;480;48.124;11.578;2023-03-31T03:35:31;10.30;99.90
983;DHT22;480;48.124;11.578;2023-03-31T03:37:58;10.30;99.90
983;DHT22;480;48.124;11.578;2023-03-31T03:40:25;10.20;99.90
983;DHT22;480;48.124;11.578;2023-03-31T03:42:52;10.10;99.90
983;DHT22;480;48.124;11.578;2023-03-31T03:45:21;10.10;99.90
983;DHT22;480;48.124;11.578;2023-03-31T03:47:48;10.00;99.90
983;DHT22;480;48.124;11.578;2023-03-31T03:50:15;10.10;99.90
983;DHT22;480;48.124;11.578;2023-03-31T03:52:42;10.10;99.90
983;DHT22;480;48.124;11.578;2023-03-31T03:55:09;10.10;99.90
983;DHT22;480;48.124;11.578;2023-03-31T03:57:36;10.00;99.90
983;DHT22;480;48.124;11.578;2023-03-31T04:00:05;10.00;99.90
983;DHT22;480;48.124;11.578;2023-03-31T04:02:36;10.00;99.90
983;DHT22;480;48.124;11.578;2023-03-31T04:05:04;9.90;99.90
983;DHT22;480;48.124;11.578;2023-03-31T04:07:31;9.90;99.90
983;DHT22;480;48.124;11.578;2023-03-31T04:09:58;10.00;99.90
983;DHT22;480;48.124;11.578;2023-03-31T04:12:25;10.00;99.90
983;DHT22;480;48.124;11.578;2023-03-31T04:14:52;10.10;99.90
983;DHT22;480;48.124;11.578;2023-03-31T04:17:19;10.20;99.90
983;DHT22;480;48.124;11.578;2023-03-31T04:19:59;10.40;99.90
983;DHT22;480;48.124;11.578;2023-03-31T04:22:29;10.50;99.90
983;DHT22;480;48.124;11.578;2023-03-31T04:25:00;10.60;99.90
983;DHT22;480;48.124;11.578;2023-03-31T04:27:28;10.70;99.90
983;DHT22;480;48.124;11.578;2023-03-31T04:29:55;10.70;99.90
983;DHT22;480;48.124;11.578;2023-03-31T04:32:23;10.70;99.90
983;DHT22;480;48.124;11.578;2023-03-31T04:34:50;10.80;99.90
983;DHT22;480;48.124;11.578;2023-03-31T04:37:28;10.80;99.90
983;DHT22;480;48.124;11.578;2023-03-31T04:39:59;10.90;99.90
983;DHT22;480;48.124;11.578;2023-03-31T04:42:32;10.90;99.90
983;DHT22;480;48.124;11.578;2023-03-31T04:44:59;10.90;99.90
983;DHT22;480;48.124;11.578;2023-03-31T04:47:26;11.00;99.90
983;DHT22;480;48.124;11.578;2023-03-31T04:49:53;11.00;99.90
983;DHT22;480;48.124;11.578;2023-03-31T04:52:20;10.90;99.90
983;DHT22;480;48.124;11.578;2023-03-31T04:54:49;11.00;99.90
983;DHT22;480;48.124;11.578;2023-03-31T04:57:15;10.90;99.90
983;DHT22;480;48.124;11.578;2023-03-31T04:59:43;10.60;99.90
983;DHT22;480;48.124;11.578;2023-03-31T05:02:10;10.30;99.90
983;DHT22;480;48.124;11.578;2023-03-31T05:04:37;10.10;99.90
983;DHT22;480;48.124;11.578;2023-03-31T05:07:04;9.60;99.90
983;DHT22;480;48.124;11.578;2023-03-31T05:09:31;9.20;99.90
983;DHT22;480;48.124;11.578;2023-03-31T05:12:00;9.10;99.90
983;DHT22;480;48.124;11.578;2023-03-31T05:14:26;8.90;99.90
983;DHT22;480;48.124;11.578;2023-03-31T05:16:54;8.90;99.90
983;DHT22;480;48.124;11.578;2023-03-31T05:19:22;8.70;99.90
983;DHT22;480;48.124;11.578;2023-03-31T05:21:49;8.70;99.90
983;DHT22;480;48.124;11.578;2023-03-31T05:24:16;8.70;99.90
983;DHT22;480;48.124;11.578;2023-03-31T05:26:43;8.80;99.90
983;DHT22;480;48.124;11.578;2023-03-31T05:29:18;8.70;99.90
983;DHT22;480;48.124;11.578;2023-03-31T05:31:45;8.70;99.90
983;DHT22;480;48.124;11.578;2023-03-31T05:34:13;8.70;99.90
983;DHT22;480;48.124;11.578;2023-03-31T05:36:41;8.60;99.90
983;DHT22;480;48.124;11.578;2023-03-31T05:39:09;8.60;99.90
983;DHT22;480;48.124;11.578;2023-03-31T05:41:36;8.60;99.90
983;DHT22;480;48.124;11.578;2023-03-31T05:44:03;8.70;99.90
983;DHT22;480;48.124;11.578;2023-03-31T05:46:31;8.80;99.90
983;DHT22;480;48.124;11.578;2023-03-31T05:48:58;8.80;99.90
983;DHT22;480;48.124;11.578;2023-03-31T05:51:25;8.90;99.90
983;DHT22;480;48.124;11.578;2023-03-31T05:53:52;9.00;99.90
983;DHT22;480;48.124;11.578;2023-03-31T05:56:20;9.10;99.90
983;DHT22;480;48.124;11.578;2023-03-31T05:58:47;9.20;99.90
983;DHT22;480;48.124;11.578;2023-03-31T06:01:15;9.10;99.90
983;DHT22;480;48.124;11.578;2023-03-31T06:03:49;9.10;99.90
983;DHT22;480;48.124;11.578;2023-03-31T06:06:16;8.90;99.90
983;DHT22;480;48.124;11.578;2023-03-31T06:08:44;8.90;99.90
983;DHT22;480;48.124;11.578;2023-03-31T06:11:13;8.90;99.90
983;DHT22;480;48.124;11.578;2023-03-31T06:13:41;9.00;99.90
983;DHT22;480;48.124;11.578;2023-03-31T06:16:10;9.20;99.90
983;DHT22;480;48.124;11.578;2023-03-31T06:18:37;9.00;99.90
983;DHT22;480;48.124;11.578;2023-03-31T06:21:06;9.00;99.90
983;DHT22;480;48.124;11.578;2023-03-31T06:23:33;9.00;99.90
983;DHT22;480;48.124;11.578;2023-03-31T06:26:03;9.00;99.90
983;DHT22;480;48.124;11.578;2023-03-31T06:28:30;9.10;99.90
983;DHT22;480;48.124;11.578;2023-03-31T06:31:00;9.10;99.90
983;DHT22;480;48.124;11.578;2023-03-31T06:33:27;9.20;99.90
983;DHT22;480;48.124;11.578;2023-03-31T06:35:55;9.20;99.90
983;DHT22;480;48.124;11.578;2023-03-31T06:38:23;9.20;99.90
983;DHT22;480;48.124;11.578;2023-03-31T06:40:50;9.20;99.90
983;DHT22;480;48.124;11.578;2023-03-31T06:43:17;9.30;99.90
983;DHT22;480;48.124;11.578;2023-03-31T06:45:45;9.40;99.90
983;DHT22;480;48.124;11.578;2023-03-31T06:48:12;9.40;99.90
983;DHT22;480;48.124;11.578;2023-03-31T06:50:39;9.60;99.90
983;DHT22;480;48.124;11.578;2023-03-31T06:53:07;9.70;99.90
983;DHT22;480;48.124;11.578;2023-03-31T06:55:36;9.80;99.90
983;DHT22;480;48.124;11.578;2023-03-31T06:58:04;9.80;99.90
983;DHT22;480;48.124;11.578;2023-03-31T07:00:31;10.10;99.90
983;DHT22;480;48.124;11.578;2023-03-31T07:02:59;10.20;99.90
983;DHT22;480;48.124;11.578;2023-03-31T07:05:26;10.30;99.90
983;DHT22;480;48.124;11.578;2023-03-31T07:07:54;10.10;99.90
983;DHT22;480;48.124;11.578;2023-03-31T07:10:21;10.00;99.90
983;DHT22;480;48.124;11.578;2023-03-31T07:12:52;10.20;99.90
983;DHT22;480;48.124;11.578;2023-03-31T07:15:19;10.20;99.90
983;DHT22;480;48.124;11.578;2023-03-31T07:17:46;10.10;99.90
983;DHT22;480;48.124;11.578;2023-03-31T07:20:16;10.10;99.90
983;DHT22;480;48.124;11.578;2023-03-31T07:22:45;10.00;99.90
983;DHT22;480;48.124;11.578;2023-03-31T07:25:15;10.00;99.90
983;DHT22;480;48.124;11.578;2023-03-31T07:27:43;9.90;99.90
983;DHT22;480;48.124;11.578;2023-03-31T07:30:14;9.90;99.90
983;DHT22;480;48.124;11.578;2023-03-31T07:32:41;9.80;99.90
983;DHT22;480;48.124;11.578;2023-03-31T07:35:10;9.90;99.90
983;DHT22;480;48.124;11.578;2023-03-31T07:37:38;10.00;99.90
983;DHT22;480;48.124;11.578;2023-03-31T07:40:12;10.20;99.90
983;DHT22;480;48.124;11.578;2023-03-31T07:42:42;10.30;99.90
983;DHT22;480;48.124;11.578;2023-03-31T07:45:13;10.50;99.90
983;DHT22;480;48.124;11.578;2023-03-31T07:47:40;10.40;99.90
983;DHT22;480;48.124;11.578;2023-03-31T07:50:08;10.40;99.90
983;DHT22;480;48.124;11.578;2023-03-31T07:52:36;10.50;99.90
983;DHT22;480;48.124;11.578;2023-03-31T07:55:05;10.40;99.90
983;DHT22;480;48.124;11.578;2023-03-31T07:57:33;10.60;99.90
983;DHT22;480;48.124;11.578;2023-03-31T08:00:00;10.40;99.90
983;DHT22;480;48.124;11.578;2023-03-31T08:02:32;10.50;99.90
983;DHT22;480;48.124;11.578;2023-03-31T08:05:00;10.60;99.90
983;DHT22;480;48.124;11.578;2023-03-31T08:07:28;10.60;99.90
983;DHT22;480;48.124;11.578;2023-03-31T08:09:56;10.80;99.90
983;DHT22;480;48.124;11.578;2023-03-31T08:12:23;10.90;99.90
983;DHT22;480;48.124;11.578;2023-03-31T08:14:51;10.80;99.90
983;DHT22;480;48.124;11.578;2023-03-31T08:17:18;10.70;99.90
983;DHT22;480;48.124;11.578;2023-03-31T08:19:50;10.70;99.90
983;DHT22;480;48.124;11.578;2023-03-31T08:22:17;10.70;99.90
983;DHT22;480;48.124;11.578;2023-03-31T08:24:46;10.60;99.90
983;DHT22;480;48.124;11.578;2023-03-31T08:27:13;10.60;99.90
983;DHT22;480;48.124;11.578;2023-03-31T08:29:41;10.60;99.90
983;DHT22;480;48.124;11.578;2023-03-31T08:32:09;10.50;99.90
983;DHT22;480;48.124;11.578;2023-03-31T08:34:36;10.50;99.90
983;DHT22;480;48.124;11.578;2023-03-31T08:37:18;10.40;99.90
983;DHT22;480;48.124;11.578;2023-03-31T08:39:45;10.50;99.90
983;DHT22;480;48.124;11.578;2023-03-31T08:42:15;10.30;99.90
983;DHT22;480;48.124;11.578;2023-03-31T08:44:45;10.30;99.90
983;DHT22;480;48.124;11.578;2023-03-31T08:47:17;10.30;99.90
983;DHT22;480;48.124;11.578;2023-03-31T08:49:48;10.30;99.90
983;DHT22;480;48.124;11.578;2023-03-31T08:52:19;10.30;99.90
983;DHT22;480;48.124;11.578;2023-03-31T08:54:50;10.30;99.90
983;DHT22;480;48.124;11.578;2023-03-31T08:57:21;10.30;99.90
983;DHT22;480;48.124;11.578;2023-03-31T08:59:50;10.50;99.90
983;DHT22;480;48.124;11.578;2023-03-31T09:02:23;10.70;99.90
983;DHT22;480;48.124;11.578;2023-03-31T09:05:09;10.90;99.90
983;DHT22;480;48.124;11.578;2023-03-31T09:07:45;11.00;99.90
983;DHT22;480;48.124;11.578;2023-03-31T09:13:15;11.30;99.90
983;DHT22;480;48.124;11.578;2023-03-31T09:15:46;11.50;99.90
983;DHT22;480;48.124;11.578;2023-03-31T09:18:20;11.60;99.90
983;DHT22;480;48.124;11.578;2023-03-31T09:20:51;11.60;99.90
983;DHT22;480;48.124;11.578;2023-03-31T09:23:24;11.70;99.90
983;DHT22;480;48.124;11.578;2023-03-31T09:25:54;11.80;99.90
983;DHT22;480;48.124;11.578;2023-03-31T09:28:27;12.00;99.90
983;DHT22;480;48.124;11.578;2023-03-31T09:30:55;12.10;99.90
983;DHT22;480;48.124;11.578;2023-03-31T09:33:25;12.20;99.90
983;DHT22;480;48.124;11.578;2023-03-31T09:35:56;12.30;99.90
983;DHT22;480;48.124;11.578;2023-03-31T09:38:25;12.50;99.90
983;DHT22;480;48.124;11.578;2023-03-31T09:40:54;12.60;99.90
983;DHT22;480;48.124;11.578;2023-03-31T09:43:23;12.70;99.90
983;DHT22;480;48.124;11.578;2023-03-31T09:45:52;12.80;99.90
983;DHT22;480;48.124;11.578;2023-03-31T09:48:22;12.70;99.90
983;DHT22;480;48.124;11.578;2023-03-31T09:50:52;12.80;99.90
983;DHT22;480;48.124;11.578;2023-03-31T09:53:27;13.00;99.90
983;DHT22;480;48.124;11.578;2023-03-31T09:56:00;13.10;99.90
983;DHT22;480;48.124;11.578;2023-03-31T09:58:27;13.10;99.90
983;DHT22;480;48.124;11.578;2023-03-31T10:00:58;13.00;99.90
983;DHT22;480;48.124;11.578;2023-03-31T10:03:25;12.90;99.90
983;DHT22;480;48.124;11.578;2023-03-31T10:05:56;13.00;99.90
983;DHT22;480;48.124;11.578;2023-03-31T10:08:30;13.10;99.90
983;DHT22;480;48.124;11.578;2023-03-31T10:11:08;13.20;99.90
983;DHT22;480;48.124;11.578;2023-03-31T10:13:42;13.40;99.90
983;DHT22;480;48.124;11.578;2023-03-31T10:16:12;13.30;99.90
983;DHT22;480;48.124;11.578;2023-03-31T10:18:41;13.50;99.90
983;DHT22;480;48.124;11.578;2023-03-31T10:21:19;13.60;99.90
983;DHT22;480;48.124;11.578;2023-03-31T10:23:49;13.70;99.90
983;DHT22;480;48.124;11.578;2023-03-31T10:26:18;13.80;99.90
983;DHT22;480;48.124;11.578;2023-03-31T10:28:47;13.70;99.90
983;DHT22;480;48.124;11.578;2023-03-31T10:31:17;13.60;99.90
983;DHT22;480;48.124;11.578;2023-03-31T10:33:49;13.50;99.90
983;DHT22;480;48.124;11.578;2023-03-31T10:36:20;13.60;99.90
983;DHT22;480;48.124;11.578;2023-03-31T10:38:50;13.60;99.90
983;DHT22;480;48.124;11.578;2023-03-31T10:41:19;13.90;99.90
983;DHT22;480;48.124;11.578;2023-03-31T10:43:49;14.10;99.90
983;DHT22;480;48.124;11.578;2023-03-31T10:46:17;14.30;99.90
983;DHT22;480;48.124;11.578;2023-03-31T10:48:45;14.40;99.90
983;DHT22;480;48.124;11.578;2023-03-31T10:51:15;14.40;99.90
983;DHT22;480;48.124;11.578;2023-03-31T10:53:44;14.30;99.90
983;DHT22;480;48.124;11.578;2023-03-31T10:56:30;14.40;99.90
983;DHT22;480;48.124;11.578;2023-03-31T10:59:34;14.40;99.90
983;DHT22;480;48.124;11.578;2023-03-31T11:02:17;14.40;99.90
983;DHT22;480;48.124;11.578;2023-03-31T11:04:56;14.20;99.90
983;DHT22;480;48.124;11.578;2023-03-31T11:07:38;14.40;99.90
983;DHT22;480;48.124;11.578;2023-03-31T11:10:30;14.40;99.90
983;DHT22;480;48.124;11.578;2023-03-31T11:13:07;14.30;99.90
983;DHT22;480;48.124;11.578;2023-03-31T11:15:41;14.10;99.90
983;DHT22;480;48.124;11.578;2023-03-31T11:18:24;14.10;99.90
983;DHT22;480;48.124;11.578;2023-03-31T11:21:00;14.00;99.90
983;DHT22;480;48.124;11.578;2023-03-31T11:23:39;13.90;99.90
983;DHT22;480;48.124;11.578;2023-03-31T11:26:09;13.50;99.90
983;DHT22;480;48.124;11.578;2023-03-31T11:28:59;13.30;99.90
983;DHT22;480;48.124;11.578;2023-03-31T11:31:35;12.20;99.90
983;DHT22;480;48.124;11.578;2023-03-31T11:34:25;11.70;99.90
983;DHT22;480;48.124;11.578;2023-03-31T11:37:19;11.30;99.90
983;DHT22;480;48.124;11.578;2023-03-31T11:40:00;11.00;99.90
983;DHT22;480;48.124;11.578;2023-03-31T11:42:35;10.90;99.90
983;DHT22;480;48.124;11.578;2023-03-31T11:45:14;10.90;99.90
983;DHT22;480;48.124;11.578;2023-03-31T11:47:44;10.90;99.90
983;DHT22;480;48.124;11.578;2023-03-31T11:50:15;10.90;99.90
983;DHT22;480;48.124;11.578;2023-03-31T11:52:51;11.00;99.90
983;DHT22;480;48.124;11.578;2023-03-31T11:55:25;11.00;99.90
983;DHT22;480;48.124;11.578;2023-03-31T11:58:02;11.00;99.90
983;DHT22;480;48.124;11.578;2023-03-31T12:00:33;11.10;99.90
983;DHT22;480;48.124;11.578;2023-03-31T12:03:08;11.30;99.90
983;DHT22;480;48.124;11.578;2023-03-31T12:05:40;11.30;99.90
983;DHT22;480;48.124;11.578;2023-03-31T12:08:11;11.40;99.90
983;DHT22;480;48.124;11.578;2023-03-31T12:10:43;11.60;99.90
983;DHT22;480;48.124;11.578;2023-03-31T12:13:28;11.90;99.90
983;DHT22;480;48.124;11.578;2023-03-31T12:16:03;12.30;99.90
983;DHT22;480;48.124;11.578;2023-03-31T12:18:36;12.40;99.90
983;DHT22;480;48.124;11.578;2023-03-31T12:21:07;12.70;99.90
983;DHT22;480;48.124;11.578;2023-03-31T12:23:39;13.10;99.90
983;DHT22;480;48.124;11.578;2023-03-31T12:26:26;13.10;99.90
983;DHT22;480;48.124;11.578;2023-03-31T12:28:58;13.10;99.90
983;DHT22;480;48.124;11.578;2023-03-31T12:31:28;13.10;99.90
983;DHT22;480;48.124;11.578;2023-03-31T12:33:59;13.00;99.90
983;DHT22;480;48.124;11.578;2023-03-31T12:36:36;13.10;99.90
983;DHT22;480;48.124;11.578;2023-03-31T12:39:21;13.40;99.90
983;DHT22;480;48.124;11.578;2023-03-31T12:42:04;13.50;99.90
983;DHT22;480;48.124;11.578;2023-03-31T12:44:47;13.20;99.90
983;DHT22;480;48.124;11.578;2023-03-31T12:47:33;13.30;99.90
983;DHT22;480;48.124;11.578;2023-03-31T12:52:59;13.20;99.90
983;DHT22;480;48.124;11.578;2023-03-31T12:55:35;13.10;99.90
983;DHT22;480;48.124;11.578;2023-03-31T13:01:21;13.00;99.90
983;DHT22;480;48.124;11.578;2023-03-31T13:04:07;13.30;99.90
983;DHT22;480;48.124;11.578;2023-03-31T13:06:53;13.50;99.90
983;DHT22;480;48.124;11.578;2023-03-31T13:09:45;13.40;99.90
983;DHT22;480;48.124;11.578;2023-03-31T13:12:15;13.30;99.90
983;DHT22;480;48.124;11.578;2023-03-31T13:14:47;13.30;99.90
983;DHT22;480;48.124;11.578;2023-03-31T13:17:30;13.10;99.90
983;DHT22;480;48.124;11.578;2023-03-31T13:20:28;12.90;99.90
983;DHT22;480;48.124;11.578;2023-03-31T13:23:02;12.80;99.90
983;DHT22;480;48.124;11.578;2023-03-31T13:28:32;12.50;99.90
983;DHT22;480;48.124;11.578;2023-03-31T13:31:02;12.50;99.90
983;DHT22;480;48.124;11.578;2023-03-31T13:33:42;12.50;99.90
983;DHT22;480;48.124;11.578;2023-03-31T13:42:45;12.50;99.90
983;DHT22;480;48.124;11.578;2023-03-31T13:45:37;12.80;99.90
983;DHT22;480;48.124;11.578;2023-03-31T13:48:28;13.10;99.90
983;DHT22;480;48.124;11.578;2023-03-31T13:51:14;13.30;99.90
983;DHT22;480;48.124;11.578;2023-03-31T13:56:51;13.40;99.90
983;DHT22;480;48.124;11.578;2023-03-31T14:02:51;14.10;99.90
983;DHT22;480;48.124;11.578;2023-03-31T14:05:27;14.00;99.90
983;DHT22;480;48.124;11.578;2023-03-31T14:07:57;14.10;99.90
983;DHT22;480;48.124;11.578;2023-03-31T14:10:27;13.90;99.90
983;DHT22;480;48.124;11.578;2023-03-31T14:13:05;13.80;99.90
983;DHT22;480;48.124;11.578;2023-03-31T14:15:34;13.80;99.90
983;DHT22;480;48.124;11.578;2023-03-31T14:18:04;13.60;99.90
983;DHT22;480;48.124;11.578;2023-03-31T14:20:42;13.50;99.90
983;DHT22;480;48.124;11.578;2023-03-31T14:23:23;13.40;99.90
983;DHT22;480;48.124;11.578;2023-03-31T14:26:00;13.20;99.90
983;DHT22;480;48.124;11.578;2023-03-31T14:28:55;13.10;99.90
983;DHT22;480;48.124;11.578;2023-03-31T14:31:28;13.00;99.90
983;DHT22;480;48.124;11.578;2023-03-31T14:34:21;12.90;99.90
983;DHT22;480;48.124;11.578;2023-03-31T14:36:55;12.80;99.90
983;DHT22;480;48.124;11.578;2023-03-31T14:39:27;12.60;99.90
983;DHT22;480;48.124;11.578;2023-03-31T14:41:58;12.60;99.90
983;DHT22;480;48.124;11.578;2023-03-31T14:44:27;12.40;99.90
983;DHT22;480;48.124;11.578;2023-03-31T14:46:55;11.70;99.90
983;DHT22;480;48.124;11.578;2023-03-31T14:49:27;11.10;99.90
983;DHT22;480;48.124;11.578;2023-03-31T14:51:59;10.70;99.90
983;DHT22;480;48.124;11.578;2023-03-31T14:54:33;10.40;99.90
983;DHT22;480;48.124;11.578;2023-03-31T14:57:02;10.30;99.90
983;DHT22;480;48.124;11.578;2023-03-31T14:59:32;10.20;99.90
983;DHT22;480;48.124;11.578;2023-03-31T15:02:02;10.20;99.90
983;DHT22;480;48.124;11.578;2023-03-31T15:04:40;10.10;99.90
983;DHT22;480;48.124;11.578;2023-03-31T15:07:11;10.10;99.90
983;DHT22;480;48.124;11.578;2023-03-31T15:09:39;10.20;99.90
983;DHT22;480;48.124;11.578;2023-03-31T15:12:10;10.60;99.90
983;DHT22;480;48.124;11.578;2023-03-31T15:14:42;11.10;99.90
983;DHT22;480;48.124;11.578;2023-03-31T15:17:20;11.40;99.90
983;DHT22;480;48.124;11.578;2023-03-31T15:19:53;11.50;99.90
983;DHT22;480;48.124;11.578;2023-03-31T15:22:23;11.70;99.90
983;DHT22;480;48.124;11.578;2023-03-31T15:24:50;11.90;99.90
983;DHT22;480;48.124;11.578;2023-03-31T15:27:26;12.20;99.90
983;DHT22;480;48.124;11.578;2023-03-31T15:29:57;12.50;99.90
983;DHT22;480;48.124;11.578;2023-03-31T15:32:27;12.60;99.90
983;DHT22;480;48.124;11.578;2023-03-31T15:34:57;12.70;99.90
983;DHT22;480;48.124;11.578;2023-03-31T15:37:27;12.70;99.90
983;DHT22;480;48.124;11.578;2023-03-31T15:39:58;12.60;99.90
983;DHT22;480;48.124;11.578;2023-03-31T15:42:28;12.50;99.90
983;DHT22;480;48.124;11.578;2023-03-31T15:44:56;12.40;99.90
983;DHT22;480;48.124;11.578;2023-03-31T15:47:29;12.30;99.90
983;DHT22;480;48.124;11.578;2023-03-31T15:50:11;12.10;99.90
983;DHT22;480;48.124;11.578;2023-03-31T15:52:45;12.10;99.90
983;DHT22;480;48.124;11.578;2023-03-31T15:55:24;12.10;99.90
983;DHT22;480;48.124;11.578;2023-03-31T15:57:56;11.90;99.90
983;DHT22;480;48.124;11.578;2023-03-31T16:00:44;12.00;99.90
983;DHT22;480;48.124;11.578;2023-03-31T16:03:17;11.90;99.90
983;DHT22;480;48.124;11.578;2023-03-31T16:05:52;11.80;99.90
983;DHT22;480;48.124;11.578;2023-03-31T16:08:24;11.90;99.90
983;DHT22;480;48.124;11.578;2023-03-31T16:10:58;11.90;99.90
983;DHT22;480;48.124;11.578;2023-03-31T16:13:28;11.80;99.90
983;DHT22;480;48.124;11.578;2023-03-31T16:16:04;11.80;99.90
983;DHT22;480;48.124;11.578;2023-03-31T16:18:45;11.80;99.90
983;DHT22;480;48.124;11.578;2023-03-31T16:21:19;11.90;99.90
983;DHT22;480;48.124;11.578;2023-03-31T16:23:53;12.00;99.90
983;DHT22;480;48.124;11.578;2023-03-31T16:26:22;12.00;99.90
983;DHT22;480;48.124;11.578;2023-03-31T16:28:51;12.00;99.90
983;DHT22;480;48.124;11.578;2023-03-31T16:31:30;11.90;99.90
983;DHT22;480;48.124;11.578;2023-03-31T16:34:02;11.90;99.90
983;DHT22;480;48.124;11.578;2023-03-31T16:36:38;11.90;99.90
983;DHT22;480;48.124;11.578;2023-03-31T16:39:05;11.80;99.90
983;DHT22;480;48.124;11.578;2023-03-31T16:41:35;11.80;99.90
983;DHT22;480;48.124;11.578;2023-03-31T16:44:03;11.80;99.90
983;DHT22;480;48.124;11.578;2023-03-31T16:46:30;11.70;99.90
983;DHT22;480;48.124;11.578;2023-03-31T16:48:58;11.70;99.90
983;DHT22;480;48.124;11.578;2023-03-31T16:51:27;11.80;99.90
983;DHT22;480;48.124;11.578;2023-03-31T16:53:55;11.80;99.90
983;DHT22;480;48.124;11.578;2023-03-31T16:56:22;11.70;99.90
983;DHT22;480;48.124;11.578;2023-03-31T16:58:49;11.70;99.90
983;DHT22;480;48.124;11.578;2023-03-31T17:01:18;11.60;99.90
983;DHT22;480;48.124;11.578;2023-03-31T17:03:46;10.90;99.90
983;DHT22;480;48.124;11.578;2023-03-31T17:06:14;10.40;99.90
983;DHT22;480;48.124;11.578;2023-03-31T17:08:41;10.10;99.90
983;DHT22;480;48.124;11.578;2023-03-31T17:11:11;9.80;99.90
983;DHT22;480;48.124;11.578;2023-03-31T17:13:39;9.50;99.90
983;DHT22;480;48.124;11.578;2023-03-31T17:16:08;9.40;99.90
983;DHT22;480;48.124;11.578;2023-03-31T17:18:36;9.20;99.90
983;DHT22;480;48.124;11.578;2023-03-31T17:21:05;9.10;99.90
983;DHT22;480;48.124;11.578;2023-03-31T17:23:32;9.10;99.90
983;DHT22;480;48.124;11.578;2023-03-31T17:26:01;9.00;99.90
983;DHT22;480;48.124;11.578;2023-03-31T17:28:30;9.00;99.90